Aérodrome :







RETROUVEZ-NOUS SUR...

 
LOGIN :

S'inscrire | Disclaimer

   EN    FR    IT 

 









Légende :    VFR   VFR Marginal   IFR   IFR Intensif   IFR Très Intensif
Visi : 
Plafond : 
>= 8 km
>= 3000ft
5 à 8 km
1000 à 3000 ft
1500m à 5 km
500 à 1000 ft
800 à 1500m
200 à 500 ft
< 800m
< 200 ft
Symboles :   Orages  Brouillard  Fortes neiges  Fortes précipitations  Vent > 20 kt






- Altitude de l'aérodrome : 266 ft
- Code IATA : MHT


KMHT - Manchester

DERNIER METAR :
  • 201628Z 33005KT 10SM -RA BKN010 BKN018 OVC025 04/02 A2989 RMK AO2 P0000 T00440022

METARs EXPIRÉS :
  • 201553Z 01005KT 10SM -RA BKN011 OVC017 04/02 A2990 RMK AO2 RAB05 SLP140 P0000 T00440022
  • 201549Z 36005KT 10SM -RA FEW007 OVC013 04/02 A2990 RMK AO2 RAB05 P0000
  • 201518Z 00000KT 5SM -RA BR BKN008 BKN017 OVC028 04/03 A2990 RMK AO2 RAB05 P0000 T00390028
  • 201510Z 00000KT 6SM -RA BR SCT008 BKN019 OVC030 04/02 A2990 RMK AO2 RAB05 P0000 T00390022
  • 201453Z 00000KT 6SM BR BKN019 OVC028 04/02 A2990 RMK AO2 RAE19 SLP141 P0000 60000 T00390022 51005

TAF KMHT
Valide du 20 à 16h jusqu'au 21 à 12h UTC


201604Z 2016/2112 01005KT P6SM -RA BKN012
FM201800 35005KT 4SM -RASN BR OVC007
FM202200 34006KT 6SM BR OVC015
FM210900 34004KT P6SM SKC



MET'MAP, la Météo Aéronautique d'un coup d'oeil ! - Copyright ORBIFLY Décembre 2007 - Disclaimer

ORBIFLY MET'MAP TEAM :

Programmation & Développement : Alexandra Zaïnal
Conception & Développement : Baudouin d'Aumeries
Co-Programmation & Développement : Marc-Olivier Méhu
Soutien technique & logistique : Manuel Goepfert

Contact : metmap@orbifly.com




SOURCES & CREDITS :

   NOAA